Open Full Screen Window  High Contrast Mode
Wind Gusting 00 knots
04
August 16, 2017 5:26 PM EDT
Weather Information
Wind Direction
  130 °
Wind Speed
  04 kt (5 mph)
Wind Gust
  00 kt (0 mph)
Altimeter
30.01 in
Visibility
10 SM
Temperature
27° C
81° F
Dewpoint
16° C
61° F
Humidity
51%
1hr Rain Fall
00.00 in.
24hr Rain Fall
00.00 in.
Sky Condition
Clear
VFR

METAR KONZ 162126Z AUTO 13004KT 10SM CLR 27/16 A3001 RMK AO2 T02710158

*Background is not an actual portrayal of the airport.